Weather at Greater Binghamton/Edwin A Link field

Public forecast

Using degrees Fahrenheit for public forecast. Weather courtesy of forecast.io.

Current aviation weather report (METAR) for Greater Binghamton/Edwin A Link field

Report is more than 6 hours old.

2022/11/14 15:28 (retrieved 2 years ago)

KBGM 141528Z 32009G15KT 9SM SCT009 SCT015 OVC041 M01/M04 A3030 RMK AO2 SNE26 P0000 T10111039

Aviation forecast (TAF) for Greater Binghamton/Edwin A Link field

Forecast is more than 12 hours old.

2023/02/22 18:22 (retrieved 1 year ago)

TAF KBGM 221720Z 2218/2318 13006KT 2SM -SN BR OVC035 FM222000 13006KT 1/2SM SN FG OVC025 FM222300 11010KT 4SM -FZRA BR OVC007 FM230300 13012KT 4SM -SHRA BR OVC006 WS020/21035KT FM231100 25006KT P6SM OVC006